Time;durP1;ratioP1;P1;durP2;ratioP2;P2;SDS_P1;SDS_P2;PMS_P1;PMS_P2;Temp;Humidity;BMP_temperature;BMP_pressure;BME280_temperature;BME280_humidity;BME280_pressure;Samples;Min_cycle;Max_cycle;Signal;HPM_P1;HPM_P2
2021/06/25 00:00:36;;;;;;;7.60;6.90;;;18.20;99.90;;;;;;5037746;28;20420;-84
2021/06/25 00:03:05;;;;;;;8.57;6.67;;;18.00;99.90;;;;;;5037671;28;20426;-83
2021/06/25 00:05:34;;;;;;;7.00;6.40;;;17.90;99.90;;;;;;5036681;28;20423;-83
2021/06/25 00:08:03;;;;;;;7.70;7.00;;;18.00;99.90;;;;;;5037194;28;20467;-84
2021/06/25 00:10:31;;;;;;;10.67;7.27;;;18.00;99.90;;;;;;5037523;28;20428;-84
2021/06/25 00:13:00;;;;;;;7.67;6.87;;;17.90;99.90;;;;;;5036715;28;20444;-82
2021/06/25 00:15:28;;;;;;;8.00;7.27;;;18.00;99.90;;;;;;5037203;28;20431;-84
2021/06/25 00:17:58;;;;;;;8.43;7.47;;;17.90;99.90;;;;;;5036927;28;20781;-83
2021/06/25 00:20:27;;;;;;;9.87;6.90;;;17.80;99.90;;;;;;5036939;28;20440;-84
2021/06/25 00:22:57;;;;;;;7.97;7.23;;;17.90;99.90;;;;;;5036684;28;20432;-84
2021/06/25 00:25:25;;;;;;;7.87;7.17;;;17.90;99.90;;;;;;5036915;28;20455;-83
2021/06/25 00:27:53;;;;;;;8.83;7.93;;;18.00;99.90;;;;;;5038802;28;20438;-83
2021/06/25 00:30:22;;;;;;;10.17;8.50;;;17.90;99.90;;;;;;5034183;28;20450;-81
2021/06/25 00:32:50;;;;;;;9.13;7.77;;;17.90;99.90;;;;;;5024567;28;20413;-83
2021/06/25 00:35:19;;;;;;;8.20;7.40;;;18.10;99.90;;;;;;5021364;28;20439;-83
2021/06/25 00:37:48;;;;;;;7.70;7.00;;;18.20;99.90;;;;;;5025041;28;20421;-82
2021/06/25 00:40:17;;;;;;;7.10;6.50;;;18.40;99.90;;;;;;5027319;28;20456;-83
2021/06/25 00:42:45;;;;;;;8.53;7.60;;;18.60;99.90;;;;;;5028357;28;20438;-82
2021/06/25 00:45:16;;;;;;;9.27;8.23;;;18.70;99.90;;;;;;5029774;28;20470;-82
2021/06/25 00:47:45;;;;;;;9.23;6.83;;;18.80;99.90;;;;;;5023147;28;20434;-83
2021/06/25 00:50:15;;;;;;;7.77;7.07;;;18.80;99.90;;;;;;5022154;28;20503;-83
2021/06/25 00:52:43;;;;;;;7.53;6.73;;;18.90;99.90;;;;;;5021856;28;20429;-82
2021/06/25 00:55:12;;;;;;;6.90;6.30;;;19.00;99.90;;;;;;5028732;28;20399;-81
2021/06/25 00:57:41;;;;;;;7.23;6.53;;;19.00;99.90;;;;;;5037266;28;20391;-84
2021/06/25 01:00:10;;;;;;;7.93;6.90;;;18.90;99.90;;;;;;5037104;28;20431;-83
2021/06/25 01:02:38;;;;;;;7.17;6.40;;;18.90;99.90;;;;;;5034440;28;20469;-81
2021/06/25 01:05:09;;;;;;;9.93;7.37;;;19.00;99.90;;;;;;5024178;28;20419;-81
2021/06/25 01:07:37;;;;;;;8.80;7.90;;;19.10;99.90;;;;;;5020267;28;20395;-82
2021/06/25 01:10:09;;;;;;;8.43;7.63;;;19.20;99.90;;;;;;5021564;28;20452;-82
2021/06/25 01:12:41;;;;;;;7.33;6.63;;;19.10;99.90;;;;;;5022375;28;20433;-82
2021/06/25 01:15:12;;;;;;;8.00;6.83;;;19.10;99.90;;;;;;5028982;28;20413;-82
2021/06/25 01:17:42;;;;;;;6.97;6.37;;;19.00;99.90;;;;;;5032823;28;20448;-82
2021/06/25 01:20:12;;;;;;;8.53;7.50;;;19.00;99.90;;;;;;5021681;28;20970;-82
2021/06/25 01:22:42;;;;;;;8.27;7.60;;;19.00;99.90;;;;;;5020260;28;20552;-83
2021/06/25 01:25:14;;;;;;;8.80;7.93;;;18.90;99.90;;;;;;5021938;28;20492;-83
2021/06/25 01:27:43;;;;;;;8.73;7.87;;;18.90;99.90;;;;;;5023570;28;20440;-83
2021/06/25 01:30:15;;;;;;;7.83;6.30;;;18.80;99.90;;;;;;5031160;28;20506;-82
2021/06/25 01:32:44;;;;;;;8.17;7.37;;;18.70;99.90;;;;;;5023632;28;20467;-82
2021/06/25 01:35:13;;;;;;;6.30;5.70;;;18.70;99.90;;;;;;5029336;28;20460;-82
2021/06/25 01:37:43;;;;;;;8.50;7.80;;;18.80;99.90;;;;;;5029638;28;20439;-82
2021/06/25 01:40:14;;;;;;;8.73;7.47;;;18.80;99.90;;;;;;5015559;28;20427;-83
2021/06/25 01:42:43;;;;;;;7.87;7.10;;;18.90;99.90;;;;;;5017257;28;20546;-81
2021/06/25 01:45:14;;;;;;;8.60;7.90;;;18.90;99.90;;;;;;5017736;28;20414;-82
2021/06/25 01:47:43;;;;;;;8.77;7.97;;;19.00;99.90;;;;;;5016138;28;20434;-82
2021/06/25 01:50:14;;;;;;;10.13;9.13;;;19.10;99.90;;;;;;5015982;28;20470;-83
2021/06/25 01:52:45;;;;;;;10.83;9.10;;;19.00;99.90;;;;;;5020618;28;20464;-82
2021/06/25 01:55:13;;;;;;;8.37;7.10;;;18.90;99.90;;;;;;5020612;28;20866;-82
2021/06/25 01:57:42;;;;;;;10.63;7.97;;;19.00;99.90;;;;;;5020291;28;20391;-82
2021/06/25 02:00:12;;;;;;;8.60;7.80;;;19.00;99.90;;;;;;5020936;28;20443;-82
2021/06/25 02:02:40;;;;;;;8.30;6.83;;;19.10;99.90;;;;;;5022955;28;20392;-82
2021/06/25 02:05:11;;;;;;;6.83;6.13;;;19.00;99.90;;;;;;5021157;28;20395;-82
2021/06/25 02:07:39;;;;;;;8.63;7.83;;;19.10;99.90;;;;;;5020369;28;20895;-83
2021/06/25 02:10:11;;;;;;;7.13;6.53;;;19.20;99.90;;;;;;5019788;28;20443;-83
2021/06/25 02:12:40;;;;;;;6.00;5.43;;;19.20;99.90;;;;;;5019351;28;20423;-83
2021/06/25 02:15:11;;;;;;;7.17;6.20;;;19.20;99.90;;;;;;5022484;28;20428;-83
2021/06/25 02:17:40;;;;;;;7.90;7.17;;;19.00;99.90;;;;;;5032364;28;20400;-83
2021/06/25 02:20:10;;;;;;;8.60;7.80;;;19.00;99.90;;;;;;5032361;28;20456;-82
2021/06/25 02:22:39;;;;;;;8.47;7.50;;;19.00;99.90;;;;;;5034205;28;20394;-82
2021/06/25 02:25:12;;;;;;;10.23;8.67;;;19.10;99.90;;;;;;5020492;28;20441;-81
2021/06/25 02:27:40;;;;;;;8.67;7.53;;;19.10;99.90;;;;;;5019073;28;20439;-83
2021/06/25 02:30:10;;;;;;;8.33;7.53;;;19.20;99.90;;;;;;5019004;28;20480;-83
2021/06/25 02:32:38;;;;;;;8.60;5.90;;;19.40;99.90;;;;;;5020712;28;20908;-83
2021/06/25 02:35:07;;;;;;;6.37;5.77;;;19.40;99.90;;;;;;5020018;28;20392;-84
2021/06/25 02:37:35;;;;;;;8.13;7.37;;;19.60;99.90;;;;;;5020008;28;20439;-83
2021/06/25 02:40:04;;;;;;;7.07;6.37;;;19.50;99.90;;;;;;5018694;28;20560;-83
2021/06/25 02:42:34;;;;;;;7.73;6.30;;;19.40;99.90;;;;;;5018780;28;20483;-83
2021/06/25 02:45:02;;;;;;;7.80;7.00;;;19.30;99.90;;;;;;5019428;28;20464;-82
2021/06/25 02:47:32;;;;;;;7.17;6.03;;;19.20;99.90;;;;;;5020486;28;20417;-83
2021/06/25 02:50:00;;;;;;;7.00;6.20;;;19.10;99.90;;;;;;5018112;28;20469;-83
2021/06/25 02:52:28;;;;;;;8.33;5.63;;;19.20;99.90;;;;;;5019643;28;20431;-82
2021/06/25 02:54:57;;;;;;;5.27;4.77;;;19.20;99.90;;;;;;5019027;28;20445;-83
2021/06/25 02:57:25;;;;;;;6.57;5.97;;;19.10;99.90;;;;;;5019451;28;20448;-84
2021/06/25 02:59:54;;;;;;;6.30;5.70;;;19.20;99.90;;;;;;5020332;28;20451;-84
2021/06/25 03:02:22;;;;;;;6.70;6.00;;;19.10;99.90;;;;;;5022038;28;20414;-83
2021/06/25 03:04:51;;;;;;;6.43;5.87;;;19.00;99.90;;;;;;5020735;28;20504;-84
2021/06/25 03:07:19;;;;;;;7.00;6.30;;;19.10;99.90;;;;;;5019065;28;20427;-83
2021/06/25 03:09:47;;;;;;;6.90;6.30;;;19.30;99.90;;;;;;5019672;28;20469;-84
2021/06/25 03:12:15;;;;;;;7.17;6.57;;;19.20;99.90;;;;;;5019780;28;20388;-84
2021/06/25 03:14:43;;;;;;;7.33;6.60;;;19.10;99.90;;;;;;5019261;28;20499;-84
2021/06/25 03:17:12;;;;;;;8.40;6.10;;;19.00;99.90;;;;;;5018886;28;20441;-84
2021/06/25 03:19:40;;;;;;;6.73;6.13;;;19.00;99.90;;;;;;5018653;28;20437;-84
2021/06/25 03:22:09;;;;;;;7.27;6.57;;;18.90;99.90;;;;;;5018550;28;20399;-84
2021/06/25 03:24:37;;;;;;;9.40;6.60;;;18.70;99.90;;;;;;5018929;28;20996;-83
2021/06/25 03:27:06;;;;;;;12.70;7.17;;;18.70;99.90;;;;;;5018872;28;20429;-83
2021/06/25 03:29:34;;;;;;;6.80;6.10;;;18.90;99.90;;;;;;5018475;28;20746;-83
2021/06/25 03:32:03;;;;;;;7.03;6.27;;;19.00;99.90;;;;;;5018251;28;20425;-82
2021/06/25 03:34:34;;;;;;;7.73;6.30;;;19.10;99.90;;;;;;5017833;28;20488;-83
2021/06/25 03:37:02;;;;;;;9.10;8.40;;;18.90;99.90;;;;;;5019174;28;20408;-83
2021/06/25 03:39:30;;;;;;;6.07;5.47;;;19.00;99.90;;;;;;5017593;28;20538;-83
2021/06/25 03:41:58;;;;;;;5.73;5.23;;;19.00;99.90;;;;;;5019045;28;20402;-83
2021/06/25 03:44:26;;;;;;;7.57;6.77;;;19.00;99.90;;;;;;5019160;28;20507;-83
2021/06/25 03:46:54;;;;;;;8.40;6.30;;;18.90;99.90;;;;;;5018968;28;20392;-83
2021/06/25 03:49:22;;;;;;;8.47;7.17;;;19.00;99.90;;;;;;5018274;28;20445;-83
2021/06/25 03:51:52;;;;;;;8.70;7.90;;;19.00;99.90;;;;;;5017855;28;20432;-83
2021/06/25 03:54:20;;;;;;;7.57;6.60;;;19.00;99.90;;;;;;5019653;28;20426;-82
2021/06/25 03:56:48;;;;;;;6.60;5.80;;;19.00;99.90;;;;;;5019209;28;20400;-83
2021/06/25 03:59:16;;;;;;;7.50;6.80;;;18.80;99.90;;;;;;5019297;28;20441;-83
2021/06/25 04:01:44;;;;;;;7.07;6.47;;;18.80;99.90;;;;;;5019520;28;20424;-83
2021/06/25 04:04:12;;;;;;;10.50;7.03;;;18.70;99.90;;;;;;5020651;28;20457;-83
2021/06/25 04:06:41;;;;;;;6.60;5.90;;;18.80;99.90;;;;;;5037107;28;20395;-83
2021/06/25 04:09:10;;;;;;;6.50;5.90;;;18.80;99.90;;;;;;5036276;28;20433;-83
2021/06/25 04:11:38;;;;;;;7.40;6.80;;;19.00;99.90;;;;;;5025986;28;20420;-83
2021/06/25 04:14:06;;;;;;;8.93;6.23;;;19.10;99.90;;;;;;5020705;28;20380;-83
2021/06/25 04:16:34;;;;;;;10.33;8.17;;;19.10;99.90;;;;;;5020213;28;20467;-82
2021/06/25 04:19:03;;;;;;;7.07;6.43;;;19.10;99.90;;;;;;5021428;28;20997;-83
2021/06/25 04:21:31;;;;;;;8.73;7.87;;;19.20;99.90;;;;;;5026891;28;20438;-84
2021/06/25 04:23:59;;;;;;;10.00;8.10;;;19.20;99.90;;;;;;5036507;28;20425;-84
2021/06/25 04:26:28;;;;;;;7.63;6.93;;;19.20;99.90;;;;;;5037553;28;20392;-84
2021/06/25 04:28:57;;;;;;;7.93;6.97;;;19.20;99.90;;;;;;5034662;28;20420;-82
2021/06/25 04:31:25;;;;;;;7.70;6.90;;;19.30;99.90;;;;;;5033273;23;20487;-83
2021/06/25 04:33:53;;;;;;;9.30;8.30;;;19.30;99.90;;;;;;5028993;28;20537;-83
2021/06/25 04:36:21;;;;;;;7.90;7.20;;;19.30;99.90;;;;;;5029037;28;20400;-82
2021/06/25 04:38:50;;;;;;;7.90;7.10;;;19.30;99.90;;;;;;5011155;28;20400;-83
2021/06/25 04:41:18;;;;;;;8.43;7.50;;;19.40;99.90;;;;;;5027962;28;20445;-84
2021/06/25 04:43:47;;;;;;;8.20;7.40;;;19.50;99.90;;;;;;5027462;28;20481;-84
2021/06/25 04:46:16;;;;;;;8.40;7.70;;;19.60;99.90;;;;;;5028787;28;20511;-82
2021/06/25 04:48:44;;;;;;;9.87;8.30;;;19.50;99.90;;;;;;5032115;28;20391;-81
2021/06/25 04:51:12;;;;;;;8.80;7.90;;;19.40;99.90;;;;;;5035725;28;20790;-81
2021/06/25 04:53:40;;;;;;;6.90;6.30;;;19.50;99.90;;;;;;5035987;28;20408;-83
2021/06/25 04:56:08;;;;;;;12.10;7.83;;;19.50;99.90;;;;;;5033701;28;20395;-83
2021/06/25 04:58:37;;;;;;;8.47;7.60;;;19.50;99.90;;;;;;5026800;28;20407;-83
2021/06/25 05:01:06;;;;;;;9.50;8.60;;;19.40;99.90;;;;;;5027918;28;20444;-82
2021/06/25 05:03:36;;;;;;;7.63;6.77;;;19.40;99.90;;;;;;5026919;28;20429;-84
2021/06/25 05:06:05;;;;;;;8.60;7.90;;;19.40;99.90;;;;;;5010145;28;20534;-82
2021/06/25 05:08:33;;;;;;;8.40;7.67;;;19.30;99.90;;;;;;5027255;28;20395;-83
2021/06/25 05:11:01;;;;;;;9.93;8.00;;;19.10;99.90;;;;;;5011260;28;20460;-82
2021/06/25 05:13:30;;;;;;;9.30;8.40;;;19.10;99.90;;;;;;5028374;28;20779;-84
2021/06/25 05:15:59;;;;;;;9.60;8.70;;;19.40;99.90;;;;;;5031675;28;20429;-83
2021/06/25 05:18:29;;;;;;;9.00;8.13;;;19.30;99.90;;;;;;5034730;28;20452;-83
2021/06/25 05:21:20;;;;;;;9.40;8.50;;;19.40;99.90;;;;;;5016843;28;20518;-82
2021/06/25 05:23:49;;;;;;;8.90;8.10;;;19.50;99.90;;;;;;5034252;28;20424;-82
2021/06/25 05:26:18;;;;;;;12.30;8.50;;;19.50;99.90;;;;;;5034174;28;20435;-82
2021/06/25 05:28:46;;;;;;;9.53;7.90;;;19.60;99.90;;;;;;5034907;28;20784;-82
2021/06/25 05:31:14;;;;;;;9.17;7.83;;;19.60;99.90;;;;;;5033484;28;20491;-81
2021/06/25 05:33:43;;;;;;;11.40;6.83;;;19.60;99.90;;;;;;5018929;28;20833;-81
2021/06/25 05:36:12;;;;;;;11.13;7.90;;;19.90;99.90;;;;;;5036072;28;20403;-82
2021/06/25 05:38:40;;;;;;;9.20;7.97;;;19.90;99.90;;;;;;5018120;28;20426;-84
2021/06/25 05:41:08;;;;;;;12.97;9.30;;;19.90;99.90;;;;;;5017181;28;20438;-83
2021/06/25 05:43:37;;;;;;;8.63;7.60;;;19.90;99.90;;;;;;5033520;28;20415;-81
2021/06/25 05:46:07;;;;;;;13.03;8.30;;;19.90;99.90;;;;;;5016998;28;20457;-82
2021/06/25 05:48:35;;;;;;;7.30;6.57;;;19.70;99.90;;;;;;5034823;28;20436;-80
2021/06/25 05:51:06;;;;;;;10.80;8.30;;;19.70;99.90;;;;;;5033694;28;20451;-82
2021/06/25 05:53:35;;;;;;;8.87;7.47;;;19.60;99.90;;;;;;5033551;28;20403;-83
2021/06/25 05:56:05;;;;;;;10.97;7.80;;;19.60;99.90;;;;;;5032325;28;20513;-82
2021/06/25 05:58:33;;;;;;;10.57;7.80;;;19.60;99.90;;;;;;5030971;28;20395;-84
2021/06/25 06:01:02;;;;;;;10.50;9.03;;;19.70;99.90;;;;;;5027647;28;20444;-81
2021/06/25 06:03:30;;;;;;;14.53;10.70;;;20.10;99.90;;;;;;5010004;28;20428;-82
2021/06/25 06:05:58;;;;;;;9.23;7.67;;;20.30;99.90;;;;;;5027938;28;20472;-82
2021/06/25 06:08:28;;;;;;;12.30;8.27;;;20.20;99.90;;;;;;5010370;28;20419;-83
2021/06/25 06:10:56;;;;;;;13.43;9.13;;;20.20;99.90;;;;;;5027464;28;20449;-83
2021/06/25 06:13:24;;;;;;;11.17;9.20;;;20.30;99.90;;;;;;5029339;28;20431;-84
2021/06/25 06:15:53;;;;;;;12.77;9.50;;;20.40;99.90;;;;;;5028092;28;20413;-84
2021/06/25 06:18:26;;;;;;;13.00;9.27;;;20.40;99.90;;;;;;5010571;28;20806;-83
2021/06/25 06:20:57;;;;;;;12.00;7.90;;;20.40;99.90;;;;;;5030466;28;20424;-82
2021/06/25 06:31:51;;;;;;;8.87;6.60;;;20.50;99.90;;;;;;5032623;28;20518;-83
2021/06/25 06:34:21;;;;;;;11.50;10.27;;;20.60;99.90;;;;;;5029696;28;20391;-80
2021/06/25 06:47:34;;;;;;;8.97;6.47;;;21.70;99.90;;;;;;5028196;28;20387;-84
2021/06/25 06:51:39;;;;;;;10.23;7.20;;;22.50;99.90;;;;;;5026717;28;20451;-84
2021/06/25 06:55:51;;;;;;;7.57;6.97;;;22.70;99.90;;;;;;5027496;28;20425;-81
2021/06/25 07:01:54;;;;;;;7.43;6.70;;;22.50;99.90;;;;;;5024275;28;20437;-84
2021/06/25 07:04:39;;;;;;;8.43;6.20;;;21.80;99.90;;;;;;5021751;28;20410;-82
2021/06/25 07:07:07;;;;;;;11.13;7.47;;;21.70;99.90;;;;;;5018490;28;20990;-82
2021/06/25 07:09:35;;;;;;;7.70;6.97;;;21.40;99.90;;;;;;4999338;28;20433;-83
2021/06/25 07:12:06;;;;;;;9.70;8.50;;;21.30;99.90;;;;;;5017807;28;20951;-83
2021/06/25 07:14:34;;;;;;;7.37;6.63;;;21.20;99.90;;;;;;5017365;28;20943;-84
2021/06/25 07:17:03;;;;;;;9.40;6.30;;;21.10;99.90;;;;;;5017956;28;20529;-83
2021/06/25 07:19:31;;;;;;;9.20;7.73;;;21.10;99.90;;;;;;5019355;28;20442;-83
2021/06/25 07:22:00;;;;;;;9.80;6.90;;;20.70;99.90;;;;;;5000343;28;20460;-83
2021/06/25 07:24:28;;;;;;;12.00;7.40;;;20.90;99.90;;;;;;5020975;28;20418;-82
2021/06/25 07:26:56;;;;;;;11.33;6.13;;;21.40;99.90;;;;;;5018038;28;20487;-82
2021/06/25 07:29:25;;;;;;;8.87;6.50;;;21.90;99.90;;;;;;5018384;28;20432;-84
2021/06/25 07:31:53;;;;;;;6.60;6.00;;;22.30;99.90;;;;;;5017168;28;20963;-83
2021/06/25 07:34:21;;;;;;;7.57;6.33;;;22.50;99.90;;;;;;5017599;28;20467;-83
2021/06/25 07:36:50;;;;;;;9.97;8.40;;;22.70;99.90;;;;;;5016299;28;20480;-85
2021/06/25 07:39:19;;;;;;;8.27;6.30;;;22.50;99.90;;;;;;5017841;28;20432;-83
2021/06/25 07:41:48;;;;;;;6.37;5.80;;;22.30;99.90;;;;;;5021314;28;20449;-83
2021/06/25 07:44:16;;;;;;;9.63;7.10;;;22.40;99.90;;;;;;5000398;28;20447;-83
2021/06/25 07:46:44;;;;;;;7.93;5.70;;;22.60;99.90;;;;;;5017508;28;20457;-84
2021/06/25 07:49:12;;;;;;;12.93;5.97;;;22.60;99.90;;;;;;5017869;28;20421;-82
2021/06/25 07:51:44;;;;;;;6.53;5.90;;;23.00;99.90;;;;;;4999841;28;20457;-83
2021/06/25 07:54:12;;;;;;;6.27;5.63;;;23.30;99.90;;;;;;5017178;28;20472;-83
2021/06/25 07:56:42;;;;;;;5.60;5.10;;;23.30;99.90;;;;;;5017499;28;20430;-83
2021/06/25 07:59:10;;;;;;;6.77;6.17;;;23.40;99.90;;;;;;5001375;28;20448;-83
2021/06/25 08:01:38;;;;;;;6.83;6.20;;;23.40;99.90;;;;;;5021507;28;20475;-81
2021/06/25 08:04:07;;;;;;;6.57;5.97;;;23.50;99.90;;;;;;5018508;28;20894;-83
2021/06/25 08:06:35;;;;;;;6.63;6.03;;;24.00;99.90;;;;;;5018539;28;20457;-82
2021/06/25 08:09:04;;;;;;;5.57;5.07;;;24.20;99.90;;;;;;5017917;28;20785;-82
2021/06/25 08:11:33;;;;;;;6.70;6.00;;;24.10;99.90;;;;;;5018827;28;20448;-83
2021/06/25 08:14:03;;;;;;;6.20;4.80;;;24.50;99.90;;;;;;5018468;28;20425;-82
2021/06/25 08:16:34;;;;;;;7.73;5.60;;;24.40;99.90;;;;;;5000636;28;20430;-84
2021/06/25 08:19:03;;;;;;;6.97;5.43;;;24.30;99.90;;;;;;5000363;28;20425;-82
2021/06/25 08:21:34;;;;;;;5.37;4.90;;;24.70;99.90;;;;;;5016739;28;20496;-83
2021/06/25 08:24:02;;;;;;;7.00;6.30;;;24.80;99.90;;;;;;5017078;28;20409;-83
2021/06/25 08:26:30;;;;;;;8.10;6.10;;;24.70;99.90;;;;;;4999304;28;21001;-84
2021/06/25 08:28:58;;;;;;;6.00;5.43;;;24.80;99.90;;;;;;4998977;28;20437;-83
2021/06/25 08:31:28;;;;;;;7.40;6.80;;;24.60;99.90;;;;;;5016673;28;20461;-83
2021/06/25 08:34:01;;;;;;;5.27;4.87;;;24.20;99.90;;;;;;5016763;28;20420;-83
2021/06/25 08:36:31;;;;;;;8.40;6.30;;;24.30;99.90;;;;;;5017469;28;20903;-83
2021/06/25 08:39:00;;;;;;;7.10;6.20;;;24.10;99.90;;;;;;5017456;28;20422;-80
2021/06/25 08:41:29;;;;;;;9.60;7.17;;;24.00;99.90;;;;;;5016356;28;20539;-83
2021/06/25 08:44:00;;;;;;;6.93;6.23;;;23.90;99.90;;;;;;5016239;28;20437;-83
2021/06/25 08:46:30;;;;;;;7.67;6.97;;;23.90;99.90;;;;;;4998496;28;20515;-83
2021/06/25 08:49:02;;;;;;;7.13;6.47;;;23.70;99.90;;;;;;5018372;28;20413;-83
2021/06/25 08:51:30;;;;;;;10.23;6.50;;;23.40;99.90;;;;;;5019921;28;21028;-81
2021/06/25 08:53:58;;;;;;;7.43;6.60;;;23.40;99.90;;;;;;5019839;28;20481;-82
2021/06/25 08:56:31;;;;;;;6.77;6.17;;;23.70;99.90;;;;;;5021059;28;20424;-81
2021/06/25 08:59:00;;;;;;;7.20;6.57;;;23.60;99.90;;;;;;5019648;28;20425;-82
2021/06/25 09:01:35;;;;;;;7.60;6.50;;;23.40;99.90;;;;;;5021301;28;20448;-82
2021/06/25 09:04:05;;;;;;;6.13;5.63;;;23.30;99.90;;;;;;5024907;28;20408;-81
2021/06/25 09:06:33;;;;;;;9.23;8.30;;;23.40;99.90;;;;;;5024349;28;20526;-80
2021/06/25 09:09:13;;;;;;;7.80;6.33;;;23.40;99.90;;;;;;5008436;28;20468;-81
2021/06/25 09:11:43;;;;;;;10.13;7.67;;;23.90;99.90;;;;;;5025354;28;20880;-81
2021/06/25 09:14:11;;;;;;;6.57;5.97;;;24.10;99.90;;;;;;5007234;28;20740;-83
2021/06/25 09:16:42;;;;;;;8.20;7.40;;;24.50;99.90;;;;;;5019930;28;20783;-82
2021/06/25 09:19:16;;;;;;;10.10;6.80;;;24.60;99.90;;;;;;5019808;28;20424;-81
2021/06/25 09:22:00;;;;;;;7.00;6.30;;;24.80;99.90;;;;;;5020519;28;20503;-82
2021/06/25 09:24:29;;;;;;;7.50;6.47;;;25.00;99.90;;;;;;5023005;28;20413;-82
2021/06/25 09:26:59;;;;;;;5.70;5.20;;;25.00;99.90;;;;;;5021948;28;20467;-83
2021/06/25 09:29:29;;;;;;;6.93;5.80;;;24.80;99.90;;;;;;5003226;28;20504;-83
2021/06/25 09:32:01;;;;;;;8.20;4.53;;;24.50;99.90;;;;;;5020337;28;20465;-82
2021/06/25 09:34:37;;;;;;;6.60;5.90;;;24.60;99.90;;;;;;5003072;28;20552;-84
2021/06/25 09:37:07;;;;;;;6.30;4.60;;;24.70;99.90;;;;;;5002966;28;20936;-83
2021/06/25 09:39:37;;;;;;;6.83;5.40;;;25.00;99.90;;;;;;5021618;28;20524;-83
2021/06/25 09:42:16;;;;;;;7.60;5.03;;;25.40;99.90;;;;;;5004256;28;20461;-82
2021/06/25 09:44:58;;;;;;;7.23;5.50;;;26.10;99.90;;;;;;5023341;28;20883;-82
2021/06/25 09:47:30;;;;;;;7.67;6.03;;;25.90;99.90;;;;;;5022918;28;20533;-82
2021/06/25 09:50:12;;;;;;;5.97;5.43;;;25.70;99.90;;;;;;5008253;28;20501;-82
2021/06/25 09:52:51;;;;;;;5.40;4.93;;;26.20;99.90;;;;;;5023776;28;20421;-80
2021/06/25 09:55:24;;;;;;;5.77;5.17;;;27.10;99.90;;;;;;5024915;28;20794;-81
2021/06/25 09:58:18;;;;;;;6.90;6.30;;;27.70;99.90;;;;;;5020851;28;20543;-83
2021/06/25 10:03:37;;;;;;;6.70;5.50;;;26.10;99.90;;;;;;5020411;28;20803;-82
2021/06/25 10:06:06;;;;;;;5.97;4.57;;;25.20;99.90;;;;;;5002403;28;20525;-83
2021/06/25 10:08:38;;;;;;;5.73;5.23;;;25.10;99.90;;;;;;5019817;28;20496;-82
2021/06/25 10:11:07;;;;;;;6.20;5.60;;;25.10;99.90;;;;;;5003839;28;20671;-82
2021/06/25 10:13:37;;;;;;;6.50;5.03;;;25.30;99.90;;;;;;5022065;28;20410;-83
2021/06/25 10:16:07;;;;;;;9.33;5.00;;;25.50;99.90;;;;;;5020774;28;20421;-83
2021/06/25 10:18:39;;;;;;;5.03;4.63;;;25.50;99.90;;;;;;5023244;28;20862;-82
2021/06/25 10:21:10;;;;;;;5.87;5.27;;;25.50;99.90;;;;;;5024849;28;20441;-83
2021/06/25 10:23:39;;;;;;;7.33;6.30;;;25.40;99.90;;;;;;5008185;28;20468;-83
2021/06/25 10:26:14;;;;;;;7.03;6.43;;;25.10;99.90;;;;;;5028648;28;20500;-81
2021/06/25 10:28:45;;;;;;;6.40;5.80;;;24.70;99.90;;;;;;5028100;28;20502;-83
2021/06/25 10:31:15;;;;;;;6.80;6.20;;;24.90;99.90;;;;;;5055492;23;20563;-84
2021/06/25 10:33:47;;;;;;;6.53;5.93;;;24.80;99.90;;;;;;5023228;28;20440;-83
2021/06/25 10:36:19;;;;;;;5.93;5.33;;;24.50;99.90;;;;;;5023042;28;20474;-83
2021/06/25 10:38:48;;;;;;;7.77;7.07;;;24.40;99.90;;;;;;5023271;28;20467;-83
2021/06/25 10:41:21;;;;;;;6.53;5.77;;;24.30;99.90;;;;;;5041051;28;20435;-82
2021/06/25 10:43:53;;;;;;;6.63;5.93;;;24.40;99.90;;;;;;5043707;28;20871;-82
2021/06/25 10:46:33;;;;;;;5.50;5.00;;;24.30;99.90;;;;;;5041921;28;20409;-82
2021/06/25 10:49:08;;;;;;;5.37;4.90;;;24.50;99.90;;;;;;5040480;28;20534;-83
2021/06/25 10:51:38;;;;;;;5.50;5.00;;;24.90;99.90;;;;;;5041770;28;20892;-83
2021/06/25 10:54:15;;;;;;;6.40;5.80;;;25.30;99.90;;;;;;5042418;28;20451;-83
2021/06/25 10:57:07;;;;;;;5.40;4.90;;;25.80;99.90;;;;;;5040141;28;20418;-83
2021/06/25 10:59:45;;;;;;;6.57;5.50;;;25.80;99.90;;;;;;5039816;28;20433;-83
2021/06/25 11:02:17;;;;;;;4.80;4.40;;;25.80;99.90;;;;;;5041847;28;20448;-83
2021/06/25 11:04:54;;;;;;;6.93;4.87;;;25.60;99.90;;;;;;5050392;28;20428;-82
2021/06/25 11:07:45;;;;;;;4.90;4.23;;;25.40;99.90;;;;;;5052806;28;20424;-82
2021/06/25 11:10:21;;;;;;;4.47;4.07;;;25.10;99.90;;;;;;5043634;28;20394;-82
2021/06/25 11:13:24;;;;;;;5.70;4.20;;;25.00;99.90;;;;;;5053932;28;20447;-83
2021/06/25 11:16:24;;;;;;;5.50;5.00;;;24.80;99.90;;;;;;5057791;28;20420;-83
2021/06/25 11:18:59;;;;;;;5.13;4.70;;;24.80;99.90;;;;;;5058142;28;20400;-83
2021/06/25 11:21:45;;;;;;;4.03;3.50;;;24.70;99.90;;;;;;5058113;28;20499;-82
2021/06/25 11:24:34;;;;;;;4.40;4.10;;;24.70;99.90;;;;;;5057848;28;20412;-83
2021/06/25 11:27:11;;;;;;;3.70;3.40;;;25.20;99.90;;;;;;5057835;28;20438;-83
2021/06/25 11:29:50;;;;;;;4.77;4.33;;;25.40;99.90;;;;;;5057504;28;20462;-83
2021/06/25 11:32:34;;;;;;;5.30;4.80;;;25.20;99.90;;;;;;5057079;28;20463;-83
2021/06/25 11:35:35;;;;;;;4.07;3.63;;;25.40;99.90;;;;;;5057250;28;20432;-83
2021/06/25 11:38:04;;;;;;;5.60;3.57;;;26.00;99.90;;;;;;5057039;28;20467;-82
2021/06/25 11:40:47;;;;;;;5.60;4.83;;;26.10;99.90;;;;;;5057579;28;20460;-84
2021/06/25 11:43:22;;;;;;;3.43;3.13;;;26.10;99.90;;;;;;5048041;28;20422;-83
2021/06/25 11:45:55;;;;;;;6.37;4.17;;;26.10;99.90;;;;;;5038007;28;20439;-83
2021/06/25 11:48:31;;;;;;;5.67;3.50;;;26.10;99.90;;;;;;5053663;28;20468;-83
2021/06/25 11:51:04;;;;;;;4.70;3.27;;;25.80;99.90;;;;;;5037421;28;20475;-83
2021/06/25 11:53:35;;;;;;;5.80;4.17;;;25.80;99.90;;;;;;5037114;28;20455;-83
2021/06/25 11:56:08;;;;;;;4.93;3.77;;;26.00;99.90;;;;;;5036218;28;20546;-83
2021/06/25 11:58:39;;;;;;;5.03;3.43;;;26.10;99.90;;;;;;5037447;28;20444;-83
2021/06/25 12:01:09;;;;;;;4.00;3.47;;;26.10;99.90;;;;;;5037768;28;20992;-83
2021/06/25 12:03:44;;;;;;;4.40;3.57;;;26.20;99.90;;;;;;5037089;28;20451;-84
2021/06/25 12:06:14;;;;;;;3.57;3.03;;;26.60;99.90;;;;;;5041298;28;20432;-84
2021/06/25 12:09:01;;;;;;;3.93;3.63;;;26.70;99.90;;;;;;5040353;28;20539;-83
2021/06/25 12:11:31;;;;;;;3.43;3.00;;;26.30;99.90;;;;;;5050879;28;20567;-83
2021/06/25 12:14:02;;;;;;;3.63;3.33;;;25.70;99.90;;;;;;5050230;28;20436;-82
2021/06/25 12:16:31;;;;;;;4.07;3.30;;;25.60;99.90;;;;;;5050701;28;20515;-82
2021/06/25 12:19:00;;;;;;;4.93;3.40;;;25.40;99.90;;;;;;5046239;28;20434;-83
2021/06/25 12:21:30;;;;;;;3.97;3.67;;;25.60;99.90;;;;;;5043241;28;20472;-82
2021/06/25 12:23:59;;;;;;;6.40;4.37;;;25.50;99.90;;;;;;5047152;28;20436;-83
2021/06/25 12:26:28;;;;;;;4.83;3.37;;;25.40;99.90;;;;;;5049801;28;20439;-82
2021/06/25 12:28:59;;;;;;;4.60;4.20;;;25.80;99.90;;;;;;5052124;28;20456;-83
2021/06/25 12:31:31;;;;;;;4.07;3.77;;;25.70;99.90;;;;;;5047544;28;20451;-82
2021/06/25 12:34:06;;;;;;;4.30;3.90;;;25.80;99.90;;;;;;5044894;28;20435;-83
2021/06/25 12:36:36;;;;;;;4.37;3.97;;;26.00;99.90;;;;;;5045291;28;20435;-82
2021/06/25 12:39:07;;;;;;;6.67;3.63;;;25.90;99.90;;;;;;5046414;28;20423;-83
2021/06/25 12:41:42;;;;;;;4.63;4.20;;;25.70;99.90;;;;;;5044761;28;20502;-83
2021/06/25 12:44:12;;;;;;;4.07;3.50;;;26.00;99.90;;;;;;5045676;28;20477;-83
2021/06/25 12:46:40;;;;;;;6.57;3.40;;;25.80;99.90;;;;;;5044324;28;20432;-83
2021/06/25 12:49:09;;;;;;;4.73;3.93;;;25.60;99.90;;;;;;5044993;28;20466;-82
2021/06/25 12:51:39;;;;;;;3.10;2.80;;;25.50;99.90;;;;;;5047348;28;20534;-83
2021/06/25 12:54:08;;;;;;;4.90;4.50;;;25.50;99.90;;;;;;5044501;28;20432;-83
2021/06/25 12:56:38;;;;;;;4.23;3.50;;;25.50;99.90;;;;;;5044748;28;20428;-83
2021/06/25 12:59:11;;;;;;;5.27;4.20;;;25.40;99.90;;;;;;5047082;28;20394;-82
2021/06/25 13:01:41;;;;;;;4.77;4.27;;;25.40;99.90;;;;;;5046560;28;20498;-83
2021/06/25 13:04:19;;;;;;;5.87;3.87;;;25.20;99.90;;;;;;5047156;28;20446;-83
2021/06/25 13:06:51;;;;;;;4.90;4.17;;;24.90;99.90;;;;;;5048909;28;20456;-83
2021/06/25 13:09:21;;;;;;;7.00;3.70;;;24.70;99.90;;;;;;5044883;28;20464;-83
2021/06/25 13:11:50;;;;;;;4.63;4.23;;;24.80;99.90;;;;;;5045995;28;20448;-84
2021/06/25 13:14:32;;;;;;;3.60;3.30;;;24.80;99.90;;;;;;5044371;28;20447;-83
2021/06/25 13:17:02;;;;;;;5.30;4.20;;;24.80;99.90;;;;;;5046102;28;20418;-83
2021/06/25 13:19:39;;;;;;;5.10;4.43;;;24.40;99.90;;;;;;5045591;28;20439;-83
2021/06/25 13:22:23;;;;;;;4.63;4.10;;;24.20;99.90;;;;;;5044914;28;20447;-83
2021/06/25 13:25:35;;;;;;;4.70;4.30;;;24.30;99.90;;;;;;5045300;28;20419;-83
2021/06/25 13:28:05;;;;;;;4.70;4.17;;;24.60;99.90;;;;;;4987893;28;20434;-84
2021/06/25 13:30:33;;;;;;;9.17;4.20;;;24.60;99.90;;;;;;5033619;28;20490;-83
2021/06/25 13:33:08;;;;;;;3.53;3.23;;;24.70;99.90;;;;;;5047076;28;20432;-83